Time;durP1;ratioP1;P1;durP2;ratioP2;P2;SDS_P1;SDS_P2;PMS_P1;PMS_P2;Temp;Humidity;BMP_temperature;BMP_pressure;BME280_temperature;BME280_humidity;BME280_pressure;Samples;Min_cycle;Max_cycle;Signal;HPM_P1;HPM_P2
2021/09/12 00:01:11;;;;;;;;;;;24.60;50.20;;;;;;1570759;74;729;-71
2021/09/12 00:03:13;;;;;;;;;;;24.50;50.20;;;;;;1573824;74;1125;-72
2021/09/12 00:05:15;;;;;;;;;;;24.50;50.20;;;;;;1577056;74;806;-72
2021/09/12 00:07:16;;;;;;;;;;;24.50;50.10;;;;;;1563083;74;789;-69
2021/09/12 00:09:18;;;;;;;;;;;24.50;50.20;;;;;;1565609;74;781;-71
2021/09/12 00:11:20;;;;;;;;;;;24.60;50.00;;;;;;1591626;73;782;-72
2021/09/12 00:13:22;;;;;;;;;;;24.50;49.80;;;;;;1593682;73;1079;-69
2021/09/12 00:15:24;;;;;;;;;;;24.50;49.80;;;;;;1597638;73;1939;-72
2021/09/12 00:17:26;;;;;;;;;;;24.50;49.90;;;;;;1578830;74;638;-72
2021/09/12 00:19:28;;;;;;;;;;;24.60;49.90;;;;;;1576306;74;681;-72
2021/09/12 00:21:30;;;;;;;;;;;24.60;49.90;;;;;;1574045;74;810;-73
2021/09/12 00:23:31;;;;;;;;;;;24.50;50.00;;;;;;1589298;73;1129;-72
2021/09/12 00:25:33;;;;;;;;;;;24.50;49.90;;;;;;1593329;74;784;-72
2021/09/12 00:27:36;;;;;;;;;;;24.50;49.90;;;;;;1591672;74;713;-72
2021/09/12 00:29:37;;;;;;;;;;;24.50;49.90;;;;;;1594706;74;694;-72
2021/09/12 00:31:39;;;;;;;;;;;24.50;49.80;;;;;;1584457;74;814;-72
2021/09/12 00:33:41;;;;;;;;;;;24.50;49.80;;;;;;1590585;73;1492;-71
2021/09/12 00:35:43;;;;;;;;;;;24.50;49.80;;;;;;1594840;73;1948;-71
2021/09/12 00:37:47;;;;;;;;;;;24.50;49.90;;;;;;1586501;73;736;-71
2021/09/12 00:39:49;;;;;;;;;;;24.50;49.70;;;;;;1592015;73;1607;-71
2021/09/12 00:41:50;;;;;;;;;;;24.50;49.70;;;;;;1592888;73;1083;-71
2021/09/12 00:43:52;;;;;;;;;;;24.50;49.50;;;;;;1580693;74;742;-71
2021/09/12 00:45:54;;;;;;;;;;;24.50;49.40;;;;;;1597577;73;736;-72
2021/09/12 00:47:56;;;;;;;;;;;24.50;49.30;;;;;;1570273;74;711;-72
2021/09/12 00:49:58;;;;;;;;;;;24.50;49.20;;;;;;1578819;73;713;-72
2021/09/12 00:52:01;;;;;;;;;;;24.50;49.10;;;;;;1574126;74;1076;-72
2021/09/12 00:54:04;;;;;;;;;;;24.50;49.00;;;;;;1580535;74;741;-71
2021/09/12 00:56:06;;;;;;;;;;;24.50;49.00;;;;;;1597611;73;1919;-70
2021/09/12 00:58:08;;;;;;;;;;;24.50;49.00;;;;;;1589967;74;735;-69
2021/09/12 01:00:10;;;;;;;;;;;24.40;48.90;;;;;;1587663;74;700;-72
2021/09/12 01:02:12;;;;;;;;;;;24.40;48.90;;;;;;1592381;73;1092;-72
2021/09/12 01:04:14;;;;;;;;;;;24.50;48.90;;;;;;1594821;73;788;-71
2021/09/12 01:06:16;;;;;;;;;;;24.50;48.90;;;;;;1582215;73;738;-69
2021/09/12 01:08:18;;;;;;;;;;;24.50;48.80;;;;;;1590184;73;699;-71
2021/09/12 01:10:20;;;;;;;;;;;24.40;48.70;;;;;;1587013;74;719;-72
2021/09/12 01:12:22;;;;;;;;;;;24.40;48.90;;;;;;1578535;74;2031;-64
2021/09/12 01:14:25;;;;;;;;;;;24.50;48.90;;;;;;1597559;73;724;-67
2021/09/12 01:16:27;;;;;;;;;;;24.50;49.00;;;;;;1606285;72;1940;-66
2021/09/12 01:18:29;;;;;;;;;;;24.40;48.80;;;;;;1602428;73;920;-65
2021/09/12 01:20:31;;;;;;;;;;;24.50;49.00;;;;;;1594173;73;765;-66
2021/09/12 01:22:32;;;;;;;;;;;24.40;48.90;;;;;;1594693;73;1218;-66
2021/09/12 01:24:36;;;;;;;;;;;24.40;48.90;;;;;;1582210;75;933;-65
2021/09/12 01:26:38;;;;;;;;;;;24.50;48.90;;;;;;1577080;75;748;-65
2021/09/12 01:28:40;;;;;;;;;;;24.40;48.80;;;;;;1578082;75;771;-65
2021/09/12 01:30:42;;;;;;;;;;;24.40;48.60;;;;;;1572119;75;668;-65
2021/09/12 01:32:44;;;;;;;;;;;24.40;48.50;;;;;;1582839;74;1173;-66
2021/09/12 01:34:46;;;;;;;;;;;24.40;48.60;;;;;;1569025;75;739;-66
2021/09/12 01:36:48;;;;;;;;;;;24.50;48.60;;;;;;1579322;75;1939;-66
2021/09/12 01:38:50;;;;;;;;;;;24.40;48.40;;;;;;1574921;75;786;-65
2021/09/12 01:40:52;;;;;;;;;;;24.40;48.30;;;;;;1578201;75;802;-63
2021/09/12 01:42:53;;;;;;;;;;;24.40;48.40;;;;;;1574911;73;1158;-66
2021/09/12 01:44:55;;;;;;;;;;;24.40;48.50;;;;;;1572918;75;728;-65
2021/09/12 01:46:57;;;;;;;;;;;24.40;48.50;;;;;;1581558;75;790;-66
2021/09/12 01:49:01;;;;;;;;;;;24.40;48.50;;;;;;1582330;75;763;-66
2021/09/12 01:51:03;;;;;;;;;;;24.40;48.60;;;;;;1575856;75;787;-65
2021/09/12 01:53:05;;;;;;;;;;;24.40;48.60;;;;;;1581076;74;1173;-65
2021/09/12 01:55:07;;;;;;;;;;;24.40;48.50;;;;;;1578655;75;726;-65
2021/09/12 01:57:09;;;;;;;;;;;24.40;48.60;;;;;;1571587;75;1919;-65
2021/09/12 01:59:10;;;;;;;;;;;24.40;48.60;;;;;;1583694;75;765;-65
2021/09/12 02:01:12;;;;;;;;;;;24.30;48.50;;;;;;1573063;75;727;-65
2021/09/12 02:03:14;;;;;;;;;;;24.40;48.60;;;;;;1572544;74;1131;-65
2021/09/12 02:05:16;;;;;;;;;;;24.40;48.60;;;;;;1580604;75;734;-65
2021/09/12 02:07:18;;;;;;;;;;;24.40;48.60;;;;;;1574529;75;743;-66
2021/09/12 02:09:22;;;;;;;;;;;24.30;48.50;;;;;;1571345;75;677;-65
2021/09/12 02:11:23;;;;;;;;;;;24.40;48.50;;;;;;1584182;75;1685;-66
2021/09/12 02:13:25;;;;;;;;;;;24.40;48.60;;;;;;1581928;74;1148;-63
2021/09/12 02:15:27;;;;;;;;;;;24.40;48.60;;;;;;1581553;75;769;-64
2021/09/12 02:17:29;;;;;;;;;;;24.40;48.70;;;;;;1579710;75;1945;-66
2021/09/12 02:19:31;;;;;;;;;;;24.40;48.80;;;;;;1580576;75;786;-65
2021/09/12 02:21:33;;;;;;;;;;;24.40;48.70;;;;;;1580535;75;756;-66
2021/09/12 02:23:35;;;;;;;;;;;24.40;48.70;;;;;;1581587;74;1138;-66
2021/09/12 02:25:36;;;;;;;;;;;24.40;48.80;;;;;;1583338;75;794;-61
2021/09/12 02:27:38;;;;;;;;;;;24.40;48.80;;;;;;1579710;75;803;-65
2021/09/12 02:29:40;;;;;;;;;;;24.40;48.90;;;;;;1582301;75;782;-66
2021/09/12 02:31:42;;;;;;;;;;;24.40;48.80;;;;;;1577501;75;740;-66
2021/09/12 02:33:44;;;;;;;;;;;24.30;48.70;;;;;;1573094;74;1186;-66
2021/09/12 02:35:46;;;;;;;;;;;24.40;48.80;;;;;;1579460;75;808;-66
2021/09/12 02:37:48;;;;;;;;;;;24.40;48.80;;;;;;1582642;75;1961;-67
2021/09/12 02:39:49;;;;;;;;;;;24.40;48.90;;;;;;1580326;75;760;-65
2021/09/12 02:41:51;;;;;;;;;;;24.30;48.80;;;;;;1577727;75;765;-66
2021/09/12 02:43:53;;;;;;;;;;;24.40;48.90;;;;;;1573803;74;1118;-63
2021/09/12 02:45:55;;;;;;;;;;;24.40;48.80;;;;;;1577630;75;748;-67
2021/09/12 02:47:57;;;;;;;;;;;24.40;48.90;;;;;;1569606;75;783;-67
2021/09/12 02:49:59;;;;;;;;;;;24.40;48.90;;;;;;1570980;75;750;-67
2021/09/12 02:52:01;;;;;;;;;;;24.30;48.90;;;;;;1578842;75;780;-66
2021/09/12 02:54:03;;;;;;;;;;;24.40;49.10;;;;;;1582608;74;1088;-66
2021/09/12 02:56:05;;;;;;;;;;;24.40;49.10;;;;;;1582354;75;816;-66
2021/09/12 02:58:06;;;;;;;;;;;24.40;49.20;;;;;;1567359;75;1935;-65
2021/09/12 03:00:09;;;;;;;;;;;24.30;49.30;;;;;;1570659;75;735;-66
2021/09/12 03:02:10;;;;;;;;;;;24.40;49.30;;;;;;1568490;73;1158;-66
2021/09/12 03:04:12;;;;;;;;;;;24.30;49.40;;;;;;1580819;75;748;-66
2021/09/12 03:06:14;;;;;;;;;;;24.40;49.40;;;;;;1572567;75;713;-67
2021/09/12 03:08:16;;;;;;;;;;;24.40;49.40;;;;;;1575597;75;813;-66
2021/09/12 03:10:18;;;;;;;;;;;24.40;49.40;;;;;;1580006;75;585;-66
2021/09/12 03:12:20;;;;;;;;;;;24.40;49.40;;;;;;1582309;74;1130;-66
2021/09/12 03:14:22;;;;;;;;;;;24.40;49.40;;;;;;1579577;75;804;-64
2021/09/12 03:16:24;;;;;;;;;;;24.40;49.40;;;;;;1578380;75;1937;-66
2021/09/12 03:18:26;;;;;;;;;;;24.30;49.40;;;;;;1583209;75;767;-66
2021/09/12 03:20:28;;;;;;;;;;;24.40;49.30;;;;;;1583921;75;767;-66
2021/09/12 03:22:29;;;;;;;;;;;24.40;49.30;;;;;;1578740;74;1121;-66
2021/09/12 03:24:31;;;;;;;;;;;24.40;49.40;;;;;;1582322;75;660;-65
2021/09/12 03:26:33;;;;;;;;;;;24.40;49.40;;;;;;1579202;75;809;-65
2021/09/12 03:28:35;;;;;;;;;;;24.40;49.40;;;;;;1582357;75;810;-64
2021/09/12 03:30:38;;;;;;;;;;;24.40;49.40;;;;;;1583035;75;728;-65
2021/09/12 03:32:39;;;;;;;;;;;24.40;49.50;;;;;;1581887;74;1162;-67
2021/09/12 03:34:41;;;;;;;;;;;24.40;49.50;;;;;;1581267;75;789;-66
2021/09/12 03:36:43;;;;;;;;;;;24.40;49.50;;;;;;1576805;75;1954;-65
2021/09/12 03:38:45;;;;;;;;;;;24.40;49.50;;;;;;1576858;75;796;-65
2021/09/12 03:40:47;;;;;;;;;;;24.40;49.40;;;;;;1572772;75;770;-65
2021/09/12 03:42:49;;;;;;;;;;;24.50;49.40;;;;;;1581985;73;1245;-65
2021/09/12 03:44:51;;;;;;;;;;;24.40;49.30;;;;;;1573948;75;805;-66
2021/09/12 03:46:53;;;;;;;;;;;24.40;49.20;;;;;;1582101;75;858;-66
2021/09/12 03:48:54;;;;;;;;;;;24.40;49.30;;;;;;1581454;75;793;-66
2021/09/12 03:50:56;;;;;;;;;;;24.30;49.30;;;;;;1578150;75;727;-65
2021/09/12 03:52:58;;;;;;;;;;;24.40;49.30;;;;;;1579478;74;1156;-66
2021/09/12 03:55:00;;;;;;;;;;;24.40;49.20;;;;;;1583576;75;651;-65
2021/09/12 03:57:02;;;;;;;;;;;24.40;49.20;;;;;;1578372;75;1931;-66
2021/09/12 03:59:04;;;;;;;;;;;24.40;49.20;;;;;;1581649;75;649;-65
2021/09/12 04:01:06;;;;;;;;;;;24.40;49.20;;;;;;1582504;75;787;-66
2021/09/12 04:03:08;;;;;;;;;;;24.40;49.20;;;;;;1578449;74;1151;-66
2021/09/12 04:05:09;;;;;;;;;;;24.30;49.10;;;;;;1582911;75;738;-64
2021/09/12 04:07:11;;;;;;;;;;;24.40;49.00;;;;;;1582579;75;699;-64
2021/09/12 04:09:13;;;;;;;;;;;24.40;48.90;;;;;;1580139;75;797;-64
2021/09/12 04:11:15;;;;;;;;;;;24.40;48.90;;;;;;1573937;75;805;-63
2021/09/12 04:13:17;;;;;;;;;;;24.40;48.80;;;;;;1578043;74;1131;-66
2021/09/12 04:15:19;;;;;;;;;;;24.40;48.80;;;;;;1570401;75;773;-65
2021/09/12 04:17:21;;;;;;;;;;;24.40;48.80;;;;;;1576876;75;1933;-65
2021/09/12 04:19:23;;;;;;;;;;;24.40;48.90;;;;;;1581024;75;791;-66
2021/09/12 04:21:24;;;;;;;;;;;24.40;48.70;;;;;;1575126;75;793;-66
2021/09/12 04:23:26;;;;;;;;;;;24.40;48.70;;;;;;1584905;73;1150;-66
2021/09/12 04:25:28;;;;;;;;;;;24.40;48.60;;;;;;1578100;75;817;-67
2021/09/12 04:27:30;;;;;;;;;;;24.40;48.60;;;;;;1578651;75;776;-65
2021/09/12 04:29:32;;;;;;;;;;;24.40;48.50;;;;;;1581371;75;814;-66
2021/09/12 04:31:34;;;;;;;;;;;24.30;48.50;;;;;;1583076;75;826;-66
2021/09/12 04:33:36;;;;;;;;;;;24.40;48.60;;;;;;1580704;73;1150;-66
2021/09/12 04:35:38;;;;;;;;;;;24.40;48.70;;;;;;1582071;75;805;-66
2021/09/12 04:37:39;;;;;;;;;;;24.30;48.60;;;;;;1577446;75;1934;-66
2021/09/12 04:39:41;;;;;;;;;;;24.30;48.30;;;;;;1579123;75;817;-66
2021/09/12 04:41:43;;;;;;;;;;;24.40;48.40;;;;;;1573780;75;752;-66
2021/09/12 04:43:45;;;;;;;;;;;24.30;48.40;;;;;;1571001;74;1087;-66
2021/09/12 04:45:47;;;;;;;;;;;24.30;48.20;;;;;;1571216;75;774;-66
2021/09/12 04:47:49;;;;;;;;;;;24.30;48.10;;;;;;1576518;75;812;-62
2021/09/12 04:49:51;;;;;;;;;;;24.40;48.10;;;;;;1577561;75;799;-66
2021/09/12 04:51:53;;;;;;;;;;;24.40;47.90;;;;;;1569230;75;851;-67
2021/09/12 04:53:55;;;;;;;;;;;24.30;47.80;;;;;;1576419;74;1105;-66
2021/09/12 04:55:57;;;;;;;;;;;24.30;47.80;;;;;;1575221;75;729;-66
2021/09/12 04:57:59;;;;;;;;;;;24.30;47.90;;;;;;1575368;75;1954;-66
2021/09/12 05:00:01;;;;;;;;;;;24.40;47.80;;;;;;1580094;75;792;-67
2021/09/12 05:02:03;;;;;;;;;;;24.30;47.80;;;;;;1572604;75;752;-66
2021/09/12 05:04:05;;;;;;;;;;;24.30;47.60;;;;;;1576024;74;1130;-66
2021/09/12 05:06:07;;;;;;;;;;;24.40;47.70;;;;;;1577403;75;781;-65
2021/09/12 05:08:09;;;;;;;;;;;24.40;47.60;;;;;;1579188;75;863;-63
2021/09/12 05:10:11;;;;;;;;;;;24.40;47.80;;;;;;1580914;75;735;-66
2021/09/12 05:12:13;;;;;;;;;;;24.40;47.70;;;;;;1578320;75;1119;-66
2021/09/12 05:14:15;;;;;;;;;;;24.30;47.70;;;;;;1582137;75;787;-66
2021/09/12 05:16:16;;;;;;;;;;;24.30;47.70;;;;;;1568753;75;810;-66
2021/09/12 05:18:18;;;;;;;;;;;24.30;47.40;;;;;;1577347;75;1935;-66
2021/09/12 05:20:20;;;;;;;;;;;24.30;47.30;;;;;;1582518;75;788;-66
2021/09/12 05:22:22;;;;;;;;;;;24.30;47.50;;;;;;1573214;74;1142;-66
2021/09/12 05:24:24;;;;;;;;;;;24.30;47.50;;;;;;1577788;75;705;-66
2021/09/12 05:26:26;;;;;;;;;;;24.30;47.40;;;;;;1581755;75;772;-63
2021/09/12 05:28:28;;;;;;;;;;;24.30;47.30;;;;;;1577532;75;800;-66
2021/09/12 05:30:30;;;;;;;;;;;24.20;47.10;;;;;;1579572;75;726;-66
2021/09/12 05:32:32;;;;;;;;;;;24.30;47.30;;;;;;1582488;74;1184;-67
2021/09/12 05:34:33;;;;;;;;;;;24.30;47.30;;;;;;1576593;75;679;-66
2021/09/12 05:36:35;;;;;;;;;;;24.30;47.30;;;;;;1581922;75;734;-66
2021/09/12 05:38:37;;;;;;;;;;;24.20;47.20;;;;;;1575098;75;1942;-66
2021/09/12 05:40:39;;;;;;;;;;;24.20;47.20;;;;;;1576689;75;779;-66
2021/09/12 05:42:41;;;;;;;;;;;24.30;47.40;;;;;;1582005;74;1169;-66
2021/09/12 05:44:43;;;;;;;;;;;24.20;47.30;;;;;;1575682;75;759;-66
2021/09/12 05:46:47;;;;;;;;;;;24.30;47.30;;;;;;1577780;75;746;-65
2021/09/12 05:48:48;;;;;;;;;;;24.30;47.30;;;;;;1582823;75;2011;-66
2021/09/12 05:50:50;;;;;;;;;;;24.40;47.30;;;;;;1582179;75;826;-63
2021/09/12 05:52:52;;;;;;;;;;;24.30;47.30;;;;;;1582152;74;1136;-66
2021/09/12 05:54:54;;;;;;;;;;;24.30;47.50;;;;;;1576174;75;807;-66
2021/09/12 05:56:56;;;;;;;;;;;24.30;47.40;;;;;;1574527;75;739;-66
2021/09/12 05:58:58;;;;;;;;;;;24.30;47.50;;;;;;1580063;75;1955;-66
2021/09/12 06:00:59;;;;;;;;;;;24.30;47.50;;;;;;1581303;75;759;-66
2021/09/12 06:03:01;;;;;;;;;;;24.30;47.70;;;;;;1574887;74;1186;-66
2021/09/12 06:05:03;;;;;;;;;;;24.40;47.60;;;;;;1581588;75;791;-65
2021/09/12 06:07:05;;;;;;;;;;;24.30;47.60;;;;;;1579308;75;768;-61
2021/09/12 06:09:07;;;;;;;;;;;24.40;47.70;;;;;;1573870;75;776;-65
2021/09/12 06:11:10;;;;;;;;;;;24.30;47.70;;;;;;1576700;75;791;-65
2021/09/12 06:13:12;;;;;;;;;;;24.40;47.80;;;;;;1578934;74;1149;-65
2021/09/12 06:15:14;;;;;;;;;;;24.30;47.90;;;;;;1580683;75;800;-65
2021/09/12 06:17:16;;;;;;;;;;;24.30;47.80;;;;;;1582629;75;688;-64
2021/09/12 06:19:18;;;;;;;;;;;24.40;47.90;;;;;;1573076;75;1941;-65
2021/09/12 06:21:20;;;;;;;;;;;24.30;48.00;;;;;;1580861;75;711;-62
2021/09/12 06:23:22;;;;;;;;;;;24.30;48.10;;;;;;1582178;74;1140;-65
2021/09/12 06:25:24;;;;;;;;;;;24.40;48.20;;;;;;1578492;75;739;-65
2021/09/12 06:27:26;;;;;;;;;;;24.40;48.10;;;;;;1579131;75;756;-66
2021/09/12 06:29:28;;;;;;;;;;;24.30;48.20;;;;;;1582399;75;737;-65
2021/09/12 06:31:29;;;;;;;;;;;24.30;48.20;;;;;;1578268;75;808;-65
2021/09/12 06:33:31;;;;;;;;;;;24.40;48.10;;;;;;1580686;74;1122;-65
2021/09/12 06:35:33;;;;;;;;;;;24.30;48.20;;;;;;1582794;75;739;-65
2021/09/12 06:37:35;;;;;;;;;;;24.40;48.20;;;;;;1582646;75;718;-65
2021/09/12 06:39:37;;;;;;;;;;;24.30;48.10;;;;;;1580379;75;1945;-65
2021/09/12 06:41:39;;;;;;;;;;;24.40;48.40;;;;;;1581415;75;770;-65
2021/09/12 06:43:41;;;;;;;;;;;24.40;48.40;;;;;;1576386;74;1141;-65
2021/09/12 06:45:43;;;;;;;;;;;24.40;48.80;;;;;;1574687;75;716;-66
2021/09/12 06:47:45;;;;;;;;;;;24.50;48.80;;;;;;1582255;75;777;-66
2021/09/12 06:49:47;;;;;;;;;;;24.40;48.70;;;;;;1582846;75;850;-65
2021/09/12 06:51:49;;;;;;;;;;;24.50;48.50;;;;;;1579936;75;780;-65
2021/09/12 06:53:50;;;;;;;;;;;24.40;48.40;;;;;;1579742;74;1117;-70
2021/09/12 06:55:52;;;;;;;;;;;24.40;48.40;;;;;;1579412;75;713;-72
2021/09/12 06:57:54;;;;;;;;;;;24.50;48.80;;;;;;1582790;75;1929;-69
2021/09/12 06:59:56;;;;;;;;;;;24.40;48.80;;;;;;1583029;75;728;-67
2021/09/12 07:01:58;;;;;;;;;;;24.40;49.00;;;;;;1576540;75;977;-69
2021/09/12 07:04:00;;;;;;;;;;;24.60;48.80;;;;;;1578428;74;1167;-70
2021/09/12 07:06:02;;;;;;;;;;;24.60;48.90;;;;;;1582987;75;785;-69
2021/09/12 07:08:04;;;;;;;;;;;24.60;49.00;;;;;;1576664;75;724;-71
2021/09/12 07:10:06;;;;;;;;;;;24.60;49.10;;;;;;1578739;75;795;-67
2021/09/12 07:12:08;;;;;;;;;;;24.60;49.00;;;;;;1581734;74;1146;-70
2021/09/12 07:14:10;;;;;;;;;;;24.60;49.20;;;;;;1548378;71;2564;-71
2021/09/12 07:16:12;;;;;;;;;;;24.60;49.30;;;;;;1533477;76;725;-72
2021/09/12 07:18:14;;;;;;;;;;;24.50;49.50;;;;;;1540743;76;1947;-70
2021/09/12 07:20:16;;;;;;;;;;;24.50;49.70;;;;;;1544301;76;693;-72
2021/09/12 07:22:18;;;;;;;;;;;24.60;49.90;;;;;;1543686;75;741;-71
2021/09/12 07:24:20;;;;;;;;;;;24.60;49.80;;;;;;1562253;75;1183;-73
2021/09/12 07:26:22;;;;;;;;;;;24.60;49.70;;;;;;1563503;75;765;-70
2021/09/12 07:28:24;;;;;;;;;;;24.60;49.70;;;;;;1562239;75;707;-73
2021/09/12 07:30:25;;;;;;;;;;;24.60;49.80;;;;;;1563536;75;689;-70
2021/09/12 07:32:27;;;;;;;;;;;24.60;49.90;;;;;;1563131;75;719;-72
2021/09/12 07:34:29;;;;;;;;;;;24.60;50.50;;;;;;1560895;75;1090;-71
2021/09/12 07:36:31;;;;;;;;;;;24.70;50.10;;;;;;1566522;75;698;-73
2021/09/12 07:38:33;;;;;;;;;;;24.60;50.10;;;;;;1565925;74;1924;-70
2021/09/12 07:40:35;;;;;;;;;;;24.60;50.10;;;;;;1566045;75;800;-72
2021/09/12 07:42:37;;;;;;;;;;;24.70;50.30;;;;;;1562461;75;1112;-70
2021/09/12 07:44:39;;;;;;;;;;;24.70;50.00;;;;;;1564738;75;791;-70
2021/09/12 07:46:40;;;;;;;;;;;24.70;49.80;;;;;;1563347;75;727;-70
2021/09/12 07:48:42;;;;;;;;;;;24.70;49.80;;;;;;1561482;75;693;-72
2021/09/12 07:50:46;;;;;;;;;;;24.70;49.80;;;;;;1563532;75;720;-69
2021/09/12 07:52:48;;;;;;;;;;;24.60;50.00;;;;;;1562958;75;1150;-70
2021/09/12 07:54:50;;;;;;;;;;;24.60;50.10;;;;;;1562118;75;795;-72
2021/09/12 07:56:52;;;;;;;;;;;24.70;50.50;;;;;;1564512;75;715;-72
2021/09/12 07:58:54;;;;;;;;;;;24.70;50.60;;;;;;1564045;75;1954;-71
2021/09/12 08:00:55;;;;;;;;;;;24.70;50.70;;;;;;1564869;75;716;-71
2021/09/12 08:02:57;;;;;;;;;;;24.70;50.80;;;;;;1563533;75;1181;-70
2021/09/12 08:04:59;;;;;;;;;;;24.70;50.80;;;;;;1563340;74;743;-69
2021/09/12 08:07:01;;;;;;;;;;;24.80;51.00;;;;;;1561853;75;741;-70
2021/09/12 08:09:03;;;;;;;;;;;24.70;51.10;;;;;;1562662;75;670;-71
2021/09/12 08:11:05;;;;;;;;;;;24.80;51.10;;;;;;1565111;75;738;-71
2021/09/12 08:13:07;;;;;;;;;;;24.70;51.30;;;;;;1565277;75;1135;-69
2021/09/12 08:15:09;;;;;;;;;;;24.90;51.00;;;;;;1564410;74;770;-69
2021/09/12 08:17:11;;;;;;;;;;;24.90;50.70;;;;;;1562903;74;752;-70
2021/09/12 08:19:13;;;;;;;;;;;24.90;50.70;;;;;;1557825;75;1925;-71
2021/09/12 08:21:14;;;;;;;;;;;24.80;50.50;;;;;;1556882;75;738;-70
2021/09/12 08:23:16;;;;;;;;;;;24.70;50.60;;;;;;1562312;75;1081;-70
2021/09/12 08:25:18;;;;;;;;;;;24.70;50.70;;;;;;1562470;75;793;-69
2021/09/12 08:27:20;;;;;;;;;;;24.70;50.60;;;;;;1565261;75;708;-71
2021/09/12 08:29:22;;;;;;;;;;;24.70;50.60;;;;;;1560990;75;740;-71
2021/09/12 08:31:24;;;;;;;;;;;24.70;50.60;;;;;;1562312;75;739;-70
2021/09/12 08:33:26;;;;;;;;;;;24.70;50.70;;;;;;1562939;75;1125;-70
2021/09/12 08:35:27;;;;;;;;;;;24.70;50.70;;;;;;1555565;75;785;-72
2021/09/12 08:37:29;;;;;;;;;;;24.70;50.70;;;;;;1559516;75;738;-71
2021/09/12 08:39:31;;;;;;;;;;;24.70;50.70;;;;;;1559796;75;1938;-73
2021/09/12 08:41:33;;;;;;;;;;;24.70;50.80;;;;;;1561422;75;716;-72
2021/09/12 08:43:35;;;;;;;;;;;24.60;50.70;;;;;;1542309;75;1127;-68
2021/09/12 08:45:37;;;;;;;;;;;24.70;50.80;;;;;;1557889;75;734;-72
2021/09/12 08:47:40;;;;;;;;;;;24.60;50.80;;;;;;1562468;75;743;-71
2021/09/12 08:49:42;;;;;;;;;;;24.60;50.80;;;;;;1561645;74;786;-71
2021/09/12 08:51:44;;;;;;;;;;;24.60;50.80;;;;;;1563147;75;662;-70
2021/09/12 08:53:45;;;;;;;;;;;24.60;50.90;;;;;;1559615;75;1074;-71
2021/09/12 08:55:47;;;;;;;;;;;24.60;50.90;;;;;;1562411;75;733;-72
2021/09/12 08:57:50;;;;;;;;;;;24.60;50.70;;;;;;1562257;75;749;-70
2021/09/12 08:59:52;;;;;;;;;;;24.70;51.00;;;;;;1561210;75;1950;-71
2021/09/12 09:01:55;;;;;;;;;;;24.80;51.00;;;;;;1563047;75;731;-72
2021/09/12 09:03:59;;;;;;;;;;;24.80;51.20;;;;;;1561643;75;1239;-70
2021/09/12 09:06:02;;;;;;;;;;;24.70;50.90;;;;;;1563045;75;766;-71
2021/09/12 09:08:09;;;;;;;;;;;24.80;51.50;;;;;;1558862;75;651;-73
2021/09/12 09:10:20;;;;;;;;;;;24.80;51.20;;;;;;1558733;75;666;-74
2021/09/12 09:12:23;;;;;;;;;;;24.80;51.40;;;;;;1561734;74;768;-72
2021/09/12 09:14:26;;;;;;;;;;;24.80;51.40;;;;;;1557347;74;1088;-71
2021/09/12 09:16:29;;;;;;;;;;;24.80;51.30;;;;;;1560704;75;701;-71
2021/09/12 09:18:32;;;;;;;;;;;24.80;51.50;;;;;;1564108;75;774;-70
2021/09/12 09:20:34;;;;;;;;;;;24.90;51.80;;;;;;1564817;75;1916;-71
2021/09/12 09:22:38;;;;;;;;;;;25.00;52.20;;;;;;1563599;75;1229;-71
2021/09/12 09:24:39;;;;;;;;;;;25.00;52.30;;;;;;1559846;75;1055;-71
2021/09/12 09:26:45;;;;;;;;;;;25.00;52.60;;;;;;1561822;75;751;-72
2021/09/12 09:28:52;;;;;;;;;;;25.00;53.50;;;;;;1558169;75;753;-72
2021/09/12 09:30:57;;;;;;;;;;;25.00;53.20;;;;;;1565637;75;1028;-70
2021/09/12 09:33:18;;;;;;;;;;;25.00;54.00;;;;;;1563581;75;1137;-70
2021/09/12 09:35:23;;;;;;;;;;;25.00;54.50;;;;;;1561586;75;720;-70
2021/09/12 09:37:25;;;;;;;;;;;25.00;54.20;;;;;;1563394;75;716;-69
2021/09/12 09:39:38;;;;;;;;;;;25.00;53.20;;;;;;1564893;75;1931;-70
2021/09/12 09:41:40;;;;;;;;;;;24.90;53.50;;;;;;1560687;75;759;-71
2021/09/12 09:43:42;;;;;;;;;;;24.90;53.00;;;;;;1560637;75;1204;-70
2021/09/12 09:45:44;;;;;;;;;;;25.00;52.30;;;;;;1563385;75;696;-73
2021/09/12 09:47:48;;;;;;;;;;;24.90;52.10;;;;;;1562829;75;701;-71
2021/09/12 09:49:50;;;;;;;;;;;25.00;51.90;;;;;;1560875;75;1105;-71
2021/09/12 09:51:53;;;;;;;;;;;25.00;51.80;;;;;;1544159;75;668;-66
2021/09/12 09:53:56;;;;;;;;;;;25.00;52.00;;;;;;1562739;75;1130;-73
2021/09/12 09:55:58;;;;;;;;;;;24.90;52.10;;;;;;1564451;75;755;-70
2021/09/12 09:58:00;;;;;;;;;;;24.80;52.10;;;;;;1555675;75;744;-72
2021/09/12 10:00:02;;;;;;;;;;;24.90;51.90;;;;;;1563150;75;1946;-72
2021/09/12 10:02:03;;;;;;;;;;;25.00;51.80;;;;;;1561649;75;803;-72
2021/09/12 10:04:05;;;;;;;;;;;24.90;51.30;;;;;;1562279;75;1217;-71
2021/09/12 10:06:07;;;;;;;;;;;24.90;51.40;;;;;;1561906;75;703;-71
2021/09/12 10:08:09;;;;;;;;;;;24.80;51.30;;;;;;1563261;75;775;-69
2021/09/12 10:10:11;;;;;;;;;;;24.80;51.30;;;;;;1555935;75;803;-71
2021/09/12 10:12:14;;;;;;;;;;;24.70;51.40;;;;;;1565018;74;736;-70
2021/09/12 10:14:17;;;;;;;;;;;24.80;51.40;;;;;;1569970;75;1125;-69
2021/09/12 10:16:19;;;;;;;;;;;24.80;51.40;;;;;;1562701;76;788;-72
2021/09/12 10:18:24;;;;;;;;;;;24.70;51.50;;;;;;1564199;75;738;-71
2021/09/12 10:20:27;;;;;;;;;;;24.80;51.60;;;;;;1562880;74;1894;-71
2021/09/12 10:22:28;;;;;;;;;;;24.70;51.50;;;;;;1568073;74;726;-72
2021/09/12 10:24:32;;;;;;;;;;;24.80;51.60;;;;;;1565659;75;1604;-73
2021/09/12 10:26:40;;;;;;;;;;;24.70;51.20;;;;;;1560745;74;681;-71
2021/09/12 10:28:41;;;;;;;;;;;24.70;51.10;;;;;;1564050;75;1120;-71
2021/09/12 10:30:43;;;;;;;;;;;24.70;51.20;;;;;;1557086;76;723;-72
2021/09/12 10:32:45;;;;;;;;;;;24.60;51.20;;;;;;1556543;75;1116;-70
2021/09/12 10:34:49;;;;;;;;;;;24.60;51.30;;;;;;1563012;75;708;-71
2021/09/12 10:36:51;;;;;;;;;;;24.60;51.20;;;;;;1544377;75;1045;-73
2021/09/12 10:38:53;;;;;;;;;;;24.60;51.20;;;;;;1569446;75;700;-71
2021/09/12 10:40:56;;;;;;;;;;;24.80;51.20;;;;;;1566615;75;1929;-75
2021/09/12 10:42:58;;;;;;;;;;;24.70;51.20;;;;;;1562083;75;1070;-72
2021/09/12 10:45:19;;;;;;;;;;;24.70;51.30;;;;;;1563735;76;731;-71
2021/09/12 10:47:21;;;;;;;;;;;24.70;51.50;;;;;;1563980;75;762;-70
2021/09/12 10:49:24;;;;;;;;;;;24.70;51.60;;;;;;1567354;75;731;-73
2021/09/12 10:51:28;;;;;;;;;;;24.70;51.90;;;;;;1563521;75;947;-70
2021/09/12 10:53:47;;;;;;;;;;;24.70;51.50;;;;;;1562722;74;1212;-72
2021/09/12 10:56:01;;;;;;;;;;;24.60;51.30;;;;;;1561785;75;597;-73
2021/09/12 10:58:03;;;;;;;;;;;24.70;51.60;;;;;;1563950;75;727;-72
2021/09/12 11:00:07;;;;;;;;;;;24.60;51.30;;;;;;1564555;74;1966;-71
2021/09/12 11:02:09;;;;;;;;;;;24.50;51.30;;;;;;1560748;75;947;-71
2021/09/12 11:04:11;;;;;;;;;;;24.60;51.50;;;;;;1564116;75;1231;-71
2021/09/12 11:06:16;;;;;;;;;;;24.60;51.50;;;;;;1558954;74;720;-71
2021/09/12 11:08:17;;;;;;;;;;;24.60;51.80;;;;;;1562341;75;740;-74
2021/09/12 11:10:37;;;;;;;;;;;24.70;51.80;;;;;;1563264;75;715;-73
2021/09/12 11:12:40;;;;;;;;;;;24.70;51.70;;;;;;1563428;74;1121;-72
2021/09/12 11:14:42;;;;;;;;;;;24.70;51.50;;;;;;1567970;75;722;-75
2021/09/12 11:16:44;;;;;;;;;;;24.80;51.40;;;;;;1559175;75;720;-72
2021/09/12 11:18:50;;;;;;;;;;;24.80;51.30;;;;;;1564725;75;779;-71
2021/09/12 11:20:52;;;;;;;;;;;24.80;51.00;;;;;;1564837;75;1903;-71
2021/09/12 11:22:54;;;;;;;;;;;24.90;50.90;;;;;;1563499;75;1156;-70
2021/09/12 11:25:02;;;;;;;;;;;24.90;50.90;;;;;;1563417;74;708;-72
2021/09/12 11:27:05;;;;;;;;;;;24.90;51.00;;;;;;1561813;75;718;-73
2021/09/12 11:29:07;;;;;;;;;;;24.80;51.30;;;;;;1562187;75;808;-71
2021/09/12 11:31:10;;;;;;;;;;;24.90;51.80;;;;;;1564212;74;753;-72
2021/09/12 11:33:12;;;;;;;;;;;24.90;52.00;;;;;;1562178;75;1154;-72
2021/09/12 11:35:14;;;;;;;;;;;24.90;51.80;;;;;;1564524;75;797;-72
2021/09/12 11:37:20;;;;;;;;;;;24.90;51.90;;;;;;1558026;75;758;-70
2021/09/12 11:39:23;;;;;;;;;;;24.90;52.20;;;;;;1562188;75;1003;-72
2021/09/12 11:41:26;;;;;;;;;;;24.90;52.30;;;;;;1564425;75;1930;-72
2021/09/12 11:43:28;;;;;;;;;;;24.90;52.30;;;;;;1562241;75;1138;-71
2021/09/12 11:45:30;;;;;;;;;;;24.80;52.00;;;;;;1569416;74;731;-72
2021/09/12 11:47:33;;;;;;;;;;;24.90;52.00;;;;;;1564331;75;705;-71
2021/09/12 11:49:34;;;;;;;;;;;24.80;51.80;;;;;;1563367;75;850;-71
2021/09/12 11:51:37;;;;;;;;;;;24.80;51.70;;;;;;1564798;75;687;-69
2021/09/12 11:53:39;;;;;;;;;;;24.80;51.70;;;;;;1559064;75;1222;-70
2021/09/12 11:55:41;;;;;;;;;;;24.80;51.60;;;;;;1563625;74;587;-72
2021/09/12 11:57:43;;;;;;;;;;;24.80;51.80;;;;;;1563317;75;716;-70
2021/09/12 11:59:45;;;;;;;;;;;24.80;51.70;;;;;;1561917;75;1934;-72
2021/09/12 12:01:48;;;;;;;;;;;24.80;51.80;;;;;;1562695;75;767;-74
2021/09/12 12:03:50;;;;;;;;;;;24.80;51.80;;;;;;1560064;74;1154;-68
2021/09/12 12:05:52;;;;;;;;;;;24.80;52.10;;;;;;1560936;75;705;-72
2021/09/12 12:07:54;;;;;;;;;;;24.80;52.00;;;;;;1560754;75;748;-72
2021/09/12 12:09:56;;;;;;;;;;;24.90;52.30;;;;;;1541919;75;1164;-71